Time;durP1;ratioP1;P1;durP2;ratioP2;P2;SDS_P1;SDS_P2;PMS_P1;PMS_P2;Temp;Humidity;BMP_temperature;BMP_pressure;BME280_temperature;BME280_humidity;BME280_pressure;Samples;Min_cycle;Max_cycle;Signal;HPM_P1;HPM_P2
2021/08/06 00:00:55;;;;;;;4.43;1.90;;;;;;;17.52;88.85;98869.78;5034359;28;20698;-68
2021/08/06 00:03:22;;;;;;;6.45;2.90;;;;;;;17.51;87.28;98863.56;5035641;28;20111;-68
2021/08/06 00:05:49;;;;;;;4.72;2.25;;;;;;;17.49;87.91;98870.13;5035527;28;20119;-68
2021/08/06 00:08:16;;;;;;;2.90;2.25;;;;;;;17.42;87.73;98851.06;5035314;28;20049;-68
2021/08/06 00:10:43;;;;;;;3.08;2.10;;;;;;;17.43;88.28;98858.16;5035278;28;20054;-69
2021/08/06 00:13:09;;;;;;;4.22;2.15;;;;;;;17.37;88.08;98869.63;5035096;28;20053;-67
2021/08/06 00:15:36;;;;;;;3.30;2.20;;;;;;;17.38;87.44;98865.94;5035456;28;20107;-67
2021/08/06 00:18:03;;;;;;;4.65;2.33;;;;;;;17.24;89.75;98859.34;5035509;28;20054;-68
2021/08/06 00:20:30;;;;;;;2.30;1.92;;;;;;;17.27;88.39;98859.00;5041850;28;20049;-68
2021/08/06 00:22:57;;;;;;;5.75;1.92;;;;;;;17.35;86.68;98852.78;5023330;28;20492;-67
2021/08/06 00:25:24;;;;;;;5.60;2.58;;;;;;;17.35;86.45;98855.47;5054690;28;20049;-67
2021/08/06 00:27:50;;;;;;;3.72;2.15;;;;;;;17.36;86.62;98852.63;5054476;28;20454;-68
2021/08/06 00:30:17;;;;;;;3.58;1.92;;;;;;;17.35;87.56;98852.78;5037542;28;20297;-67
2021/08/06 00:32:43;;;;;;;3.35;2.10;;;;;;;17.32;87.38;98850.44;5037260;28;20492;-68
2021/08/06 00:35:10;;;;;;;3.15;2.33;;;;;;;17.34;88.82;98848.41;5054824;28;20048;-67
2021/08/06 00:37:37;;;;;;;3.45;2.22;;;;;;;17.28;87.35;98838.28;5054907;28;20106;-68
2021/08/06 00:40:04;;;;;;;3.53;1.90;;;;;;;17.30;87.16;98847.91;5037225;28;20126;-68
2021/08/06 00:42:31;;;;;;;3.90;1.88;;;;;;;17.30;86.23;98830.88;5054574;28;20052;-68
2021/08/06 00:44:58;;;;;;;3.85;2.05;;;;;;;17.30;86.51;98836.25;5037351;28;20186;-69
2021/08/06 00:47:25;;;;;;;3.10;2.35;;;;;;;17.24;85.59;98841.34;5037170;28;20106;-69
2021/08/06 00:49:51;;;;;;;5.38;2.30;;;;;;;17.21;87.02;98827.34;5054859;28;20057;-68
2021/08/06 00:52:18;;;;;;;4.78;1.90;;;;;;;17.31;85.63;98832.53;5036780;28;20106;-69
2021/08/06 00:54:45;;;;;;;5.60;2.05;;;;;;;17.27;85.20;98834.75;5036910;28;20114;-69
2021/08/06 00:57:15;;;;;;;2.55;2.15;;;;;;;17.24;85.94;98841.34;5054436;28;20106;-68
2021/08/06 00:59:42;;;;;;;5.90;2.20;;;;;;;17.17;85.31;98829.53;5054860;28;20044;-68
2021/08/06 01:02:28;;;;;;;4.93;1.98;;;;;;;17.19;86.12;98841.00;5036856;28;20415;-67
2021/08/06 01:05:10;;;;;;;5.03;2.15;;;;;;;17.18;86.68;98831.22;5054458;28;20057;-67
2021/08/06 01:07:48;;;;;;;2.72;1.95;;;;;;;17.18;86.49;98830.38;5036817;28;20053;-68
2021/08/06 01:10:19;;;;;;;3.55;2.00;;;;;;;17.20;86.11;98831.03;5054283;28;20131;-68
2021/08/06 01:12:48;;;;;;;;;;;;;;;17.17;85.90;98826.00;5054643;28;20049;-68
2021/08/06 01:15:15;;;;;;;2.53;2.00;;;;;;;17.08;87.63;98823.31;5054383;28;19935;-67
2021/08/06 01:17:45;;;;;;;5.07;2.08;;;;;;;17.09;87.69;98819.59;5054052;28;20052;-69
2021/08/06 01:20:18;;;;;;;3.03;2.03;;;;;;;16.97;88.09;98813.69;5054279;28;20065;-67
2021/08/06 01:22:48;;;;;;;2.75;2.03;;;;;;;17.01;89.20;98827.66;5034272;28;20431;-68
2021/08/06 01:25:15;;;;;;;6.68;1.63;;;;;;;17.00;88.44;98825.94;5033554;28;20049;-68
2021/08/06 01:27:48;;;;;;;2.70;1.63;;;;;;;16.95;88.92;98823.78;5034372;28;20187;-67
2021/08/06 01:30:16;;;;;;;3.35;1.90;;;;;;;16.95;90.11;98839.13;5034114;28;20487;-69
2021/08/06 01:32:42;;;;;;;2.90;1.92;;;;;;;16.90;89.98;98820.75;5034198;28;20351;-68
2021/08/06 01:35:09;;;;;;;4.47;1.92;;;;;;;17.00;89.14;98827.81;5034520;28;20053;-68
2021/08/06 01:37:36;;;;;;;2.97;1.90;;;;;;;17.02;89.17;98815.03;5034269;28;20402;-69
2021/08/06 01:40:06;;;;;;;3.70;1.95;;;;;;;17.06;88.78;98819.91;5034385;28;20053;-67
2021/08/06 01:42:39;;;;;;;2.75;1.90;;;;;;;17.09;88.82;98813.34;5016852;28;20386;-69
2021/08/06 01:45:15;;;;;;;3.08;1.83;;;;;;;17.05;88.53;98810.16;5034024;28;20450;-67
2021/08/06 01:47:48;;;;;;;3.10;1.73;;;;;;;16.94;88.90;98794.31;5034288;28;20116;-69
2021/08/06 01:50:22;;;;;;;2.80;1.75;;;;;;;17.00;89.11;98803.56;5034080;28;20057;-68
2021/08/06 01:52:54;;;;;;;3.47;1.80;;;;;;;16.96;89.00;98809.28;5032882;28;20049;-67
2021/08/06 01:55:21;;;;;;;3.33;1.90;;;;;;;16.94;89.11;98813.19;5033951;28;20096;-68
2021/08/06 01:57:49;;;;;;;3.05;1.90;;;;;;;16.91;89.47;98808.09;5037739;28;20107;-68
2021/08/06 02:00:16;;;;;;;7.00;1.73;;;;;;;16.88;89.54;98801.19;5037731;28;20350;-67
2021/08/06 02:02:43;;;;;;;3.22;1.77;;;;;;;16.89;90.65;98792.09;5037705;28;20049;-69
2021/08/06 02:05:10;;;;;;;4.40;1.70;;;;;;;16.88;90.33;98801.19;5037557;28;20161;-70
2021/08/06 02:07:37;;;;;;;1.92;1.73;;;;;;;16.89;91.33;98789.41;5037807;28;20095;-68
2021/08/06 02:10:04;;;;;;;3.60;1.92;;;;;;;16.88;90.16;98795.81;5037681;28;20049;-69
2021/08/06 02:12:33;;;;;;;3.63;1.80;;;;;;;16.84;90.80;98789.09;5037482;28;20046;-69
2021/08/06 02:15:00;;;;;;;1.60;1.50;;;;;;;16.88;90.48;98792.28;5037586;28;20053;-69
2021/08/06 02:17:27;;;;;;;6.28;1.70;;;;;;;16.86;91.09;98787.06;5037252;28;20451;-67
2021/08/06 02:19:56;;;;;;;3.53;1.73;;;;;;;16.86;91.59;98787.06;5037110;28;20057;-67
2021/08/06 02:22:23;;;;;;;2.40;1.83;;;;;;;16.63;92.08;98752.72;5053426;28;20045;-68
2021/08/06 02:24:50;;;;;;;5.78;2.03;;;;;;;16.73;94.28;98784.88;5036999;28;20412;-68
2021/08/06 02:27:18;;;;;;;4.25;1.73;;;;;;;16.65;95.36;98790.25;5037390;28;20049;-69
2021/08/06 02:29:47;;;;;;;4.82;1.85;;;;;;;16.54;96.47;98789.56;5037103;28;20442;-68
2021/08/06 02:32:13;;;;;;;2.70;1.88;;;;;;;16.48;97.56;98794.75;5037335;28;20386;-67
2021/08/06 02:34:41;;;;;;;4.45;2.17;;;;;;;16.29;100.00;98786.00;5019539;28;20053;-68
2021/08/06 02:37:08;;;;;;;4.50;1.75;;;;;;;16.13;100.00;98782.25;5019939;28;20053;-68
2021/08/06 02:39:34;;;;;;;2.65;1.70;;;;;;;16.11;100.00;98784.25;5037225;28;20128;-68
2021/08/06 02:42:04;;;;;;;2.10;1.88;;;;;;;16.06;100.00;98770.44;5037139;28;20320;-69
2021/08/06 02:44:34;;;;;;;4.30;1.92;;;;;;;16.09;100.00;98778.22;5037099;28;20053;-69
2021/08/06 02:47:01;;;;;;;2.17;1.70;;;;;;;16.07;100.00;98776.69;5019650;28;20072;-68
2021/08/06 02:49:32;;;;;;;3.17;1.60;;;;;;;16.02;100.00;98778.00;5036593;28;20057;-69
2021/08/06 02:52:04;;;;;;;1.75;1.63;;;;;;;16.03;100.00;98776.16;5037839;28;20053;-68
2021/08/06 02:54:32;;;;;;;3.08;1.90;;;;;;;16.00;100.00;98771.94;5037113;28;20147;-69
2021/08/06 02:56:58;;;;;;;1.80;1.60;;;;;;;16.01;100.00;98770.94;5036840;28;20092;-70
2021/08/06 02:59:25;;;;;;;3.40;1.70;;;;;;;15.95;100.00;98762.69;5019035;28;20434;-68
2021/08/06 03:01:52;;;;;;;4.18;1.70;;;;;;;15.88;100.00;98752.56;5036726;28;20057;-68
2021/08/06 03:04:19;;;;;;;3.90;1.80;;;;;;;15.93;100.00;98762.84;5002806;28;20129;-68
2021/08/06 03:06:48;;;;;;;2.72;1.60;;;;;;;15.97;100.00;98760.66;5036278;28;20080;-68
2021/08/06 03:09:24;;;;;;;3.13;1.70;;;;;;;15.95;100.00;98757.31;5035975;28;20398;-69
2021/08/06 03:11:55;;;;;;;4.55;1.75;;;;;;;15.96;100.00;98756.31;5004101;28;20412;-69
2021/08/06 03:14:22;;;;;;;5.97;1.80;;;;;;;15.95;100.00;98751.94;5019144;28;20052;-69
2021/08/06 03:16:48;;;;;;;2.50;1.50;;;;;;;15.96;100.00;98751.75;5036348;28;20053;-69
2021/08/06 03:19:15;;;;;;;1.85;1.48;;;;;;;15.93;100.00;98743.16;5036421;28;20049;-67
2021/08/06 03:21:41;;;;;;;3.70;1.58;;;;;;;15.91;100.00;98745.97;5047533;28;20083;-69
2021/08/06 03:24:08;;;;;;;4.05;1.60;;;;;;;15.92;100.00;98742.34;5040646;28;20127;-68
2021/08/06 03:26:35;;;;;;;3.03;1.70;;;;;;;15.94;100.00;98731.38;5036255;28;20057;-67
2021/08/06 03:29:02;;;;;;;4.75;1.50;;;;;;;15.89;100.00;98738.09;5036127;28;20053;-68
2021/08/06 03:31:29;;;;;;;2.78;1.63;;;;;;;15.93;100.00;98743.16;5036074;28;20180;-69
2021/08/06 03:33:55;;;;;;;4.75;1.73;;;;;;;15.93;100.00;98740.47;5036162;28;20398;-69
2021/08/06 03:36:22;;;;;;;3.83;1.92;;;;;;;15.85;100.00;98725.94;5018852;28;20351;-69
2021/08/06 03:38:48;;;;;;;1.42;1.30;;;;;;;15.90;100.00;98736.22;5036308;28;20053;-69
2021/08/06 03:41:15;;;;;;;3.92;1.38;;;;;;;15.96;100.00;98749.06;5035777;28;20056;-69
2021/08/06 03:43:41;;;;;;;2.60;1.58;;;;;;;15.91;100.00;98743.28;5035719;28;20068;-69
2021/08/06 03:46:08;;;;;;;2.30;1.40;;;;;;;15.86;100.00;98742.94;5018324;28;20103;-69
2021/08/06 03:48:35;;;;;;;1.55;1.38;;;;;;;15.87;100.00;98745.47;5035936;28;20115;-68
2021/08/06 03:51:02;;;;;;;3.58;1.38;;;;;;;15.88;100.00;98749.84;5035812;28;20332;-68
2021/08/06 03:53:28;;;;;;;2.28;1.40;;;;;;;15.92;100.00;98753.09;5035833;28;20054;-69
2021/08/06 03:55:55;;;;;;;2.10;1.50;;;;;;;15.85;100.00;98742.09;5035831;28;20045;-69
2021/08/06 03:58:22;;;;;;;2.08;1.30;;;;;;;15.93;100.00;98744.00;5035562;28;20076;-68
2021/08/06 04:00:48;;;;;;;1.90;1.48;;;;;;;15.96;100.00;98750.91;5035471;28;20354;-67
2021/08/06 04:03:15;;;;;;;1.65;1.13;;;;;;;15.90;100.00;98744.28;5035799;28;20071;-69
2021/08/06 04:05:42;;;;;;;3.75;1.30;;;;;;;15.98;100.00;98754.28;5018000;28;20347;-68
2021/08/06 04:08:09;;;;;;;1.23;1.10;;;;;;;15.97;100.00;98755.28;5035375;28;20049;-68
2021/08/06 04:10:36;;;;;;;1.30;1.20;;;;;;;15.92;100.00;98752.25;5035156;28;20053;-68
2021/08/06 04:13:04;;;;;;;1.80;1.27;;;;;;;15.91;100.00;98745.97;5035380;28;20046;-69
2021/08/06 04:15:30;;;;;;;2.60;1.25;;;;;;;15.99;100.00;98758.66;5035379;28;20057;-68
2021/08/06 04:17:57;;;;;;;1.40;0.93;;;;;;;15.99;100.00;98759.50;5035349;28;20109;-69
2021/08/06 04:20:24;;;;;;;1.20;0.95;;;;;;;16.01;100.00;98756.63;5035500;28;20336;-67
2021/08/06 04:22:51;;;;;;;1.30;1.00;;;;;;;16.00;100.00;98754.94;5050404;28;20049;-68
2021/08/06 04:25:18;;;;;;;2.05;1.15;;;;;;;16.04;100.00;98763.53;5017767;28;20072;-69
2021/08/06 04:27:45;;;;;;;2.50;1.75;;;;;;;16.02;100.00;98766.41;5017855;28;20045;-68
2021/08/06 04:30:12;;;;;;;1.63;0.93;;;;;;;15.99;100.00;98753.28;5035245;28;20390;-69
2021/08/06 04:32:39;;;;;;;3.60;1.15;;;;;;;15.99;100.00;98761.34;5035345;28;20053;-68
2021/08/06 04:35:07;;;;;;;1.88;1.10;;;;;;;15.97;100.00;98766.06;5035392;28;20103;-68
2021/08/06 04:37:33;;;;;;;1.58;1.10;;;;;;;16.00;100.00;98765.72;5035165;28;20072;-69
2021/08/06 04:40:00;;;;;;;3.28;0.95;;;;;;;16.05;100.00;98763.38;5034882;28;20057;-69
2021/08/06 04:42:27;;;;;;;2.05;0.98;;;;;;;16.04;100.00;98760.84;5033889;28;20049;-68
2021/08/06 04:44:53;;;;;;;1.10;0.98;;;;;;;16.01;100.00;98768.25;5035158;28;20057;-67
2021/08/06 04:47:20;;;;;;;1.85;1.10;;;;;;;15.99;100.00;98764.88;5035216;28;20049;-68
2021/08/06 04:49:47;;;;;;;3.30;1.20;;;;;;;16.05;100.00;98765.22;5017888;28;20143;-67
2021/08/06 04:52:13;;;;;;;2.55;1.00;;;;;;;16.03;100.00;98770.78;5034536;28;20103;-68
2021/08/06 04:54:40;;;;;;;7.60;1.30;;;;;;;16.11;100.00;98775.31;5017520;28;20444;-69
2021/08/06 04:57:07;;;;;;;1.95;1.20;;;;;;;16.09;100.00;98770.13;5001490;28;20057;-68
2021/08/06 04:59:33;;;;;;;3.95;1.00;;;;;;;16.06;100.00;98758.84;5034697;28;20045;-68
2021/08/06 05:02:00;;;;;;;2.63;1.00;;;;;;;16.16;100.00;98773.00;5028985;28;20389;-68
2021/08/06 05:04:27;;;;;;;2.80;1.08;;;;;;;16.15;100.00;98768.63;5037494;28;20135;-68
2021/08/06 05:06:54;;;;;;;1.33;1.15;;;;;;;16.20;100.00;98770.81;5054609;28;20060;-67
2021/08/06 05:09:20;;;;;;;1.30;1.10;;;;;;;16.26;100.00;98771.03;5054915;28;20106;-68
2021/08/06 05:11:47;;;;;;;3.70;1.10;;;;;;;16.28;100.00;98765.44;5020730;28;20137;-67
2021/08/06 05:14:13;;;;;;;3.90;1.10;;;;;;;16.27;100.00;98774.53;5037201;28;20098;-69
2021/08/06 05:16:40;;;;;;;1.00;0.90;;;;;;;16.20;100.00;98752.84;5036910;28;20077;-68
2021/08/06 05:19:07;;;;;;;1.85;1.05;;;;;;;16.29;100.00;98775.22;5054367;28;20128;-67
2021/08/06 05:21:33;;;;;;;1.05;0.95;;;;;;;16.31;100.00;98766.97;5036452;28;20061;-69
2021/08/06 05:24:00;;;;;;;1.95;1.30;;;;;;;16.31;100.00;98777.72;5054522;28;20052;-68
2021/08/06 05:26:27;;;;;;;1.50;0.93;;;;;;;16.35;100.00;98774.53;5054348;28;20061;-67
2021/08/06 05:28:53;;;;;;;1.48;1.00;;;;;;;16.39;100.00;98769.66;5054341;28;20397;-68
2021/08/06 05:31:20;;;;;;;1.85;1.40;;;;;;;16.37;100.00;98764.47;5055541;28;20056;-67
2021/08/06 05:33:47;;;;;;;2.72;0.90;;;;;;;16.38;100.00;98766.16;5058186;28;20053;-68
2021/08/06 05:36:13;;;;;;;1.70;1.10;;;;;;;16.36;100.00;98773.56;5040867;28;20095;-67
2021/08/06 05:38:40;;;;;;;2.25;1.00;;;;;;;16.33;100.00;98771.19;5058436;28;20052;-67
2021/08/06 05:41:06;;;;;;;2.13;1.10;;;;;;;16.20;100.00;98771.66;5040292;28;20105;-67
2021/08/06 05:43:33;;;;;;;1.98;1.02;;;;;;;16.07;100.00;98765.91;5058217;28;20328;-67
2021/08/06 05:46:00;;;;;;;2.65;1.23;;;;;;;16.13;100.00;98770.66;5058223;28;20114;-67
2021/08/06 05:48:26;;;;;;;2.08;1.00;;;;;;;16.18;100.00;98775.53;5040511;28;20052;-69
2021/08/06 05:50:53;;;;;;;3.88;1.30;;;;;;;16.22;100.00;98768.78;5058068;28;20052;-68
2021/08/06 05:53:21;;;;;;;1.58;1.13;;;;;;;16.35;100.00;98774.53;5023452;28;20049;-68
2021/08/06 05:55:48;;;;;;;3.03;1.33;;;;;;;16.35;100.00;98773.72;5057810;28;20056;-69
2021/08/06 05:58:14;;;;;;;3.72;0.95;;;;;;;16.37;100.00;98782.47;5057598;28;20049;-74
2021/08/06 06:00:41;;;;;;;1.50;1.20;;;;;;;16.37;100.00;98772.56;5057093;28;20041;-71
2021/08/06 06:03:12;;;;;;;2.92;1.00;;;;;;;16.45;100.00;98784.34;5040401;28;20343;-73
2021/08/06 06:05:39;;;;;;;2.65;1.35;;;;;;;16.46;100.00;98781.50;5057575;28;20331;-70
2021/08/06 06:08:06;;;;;;;2.10;1.20;;;;;;;16.53;100.00;98789.72;5057551;28;20163;-78
2021/08/06 06:10:32;;;;;;;3.70;1.10;;;;;;;16.55;100.00;98798.47;5057035;28;20378;-67
2021/08/06 06:12:59;;;;;;;2.35;0.98;;;;;;;16.52;100.00;98805.03;5056417;28;20099;-67
2021/08/06 06:15:26;;;;;;;1.77;0.93;;;;;;;16.55;100.00;98793.09;5056991;28;20106;-67
2021/08/06 06:17:52;;;;;;;5.43;1.02;;;;;;;16.66;100.00;98808.09;5034822;28;20118;-67
2021/08/06 06:20:20;;;;;;;4.25;1.20;;;;;;;16.71;100.00;98797.66;5054797;28;20080;-67
2021/08/06 06:22:46;;;;;;;3.08;1.17;;;;;;;16.76;100.00;98791.75;5055788;28;20701;-67
2021/08/06 06:25:13;;;;;;;2.35;0.90;;;;;;;16.93;100.00;98804.25;5066804;28;20350;-67
2021/08/06 06:27:55;;;;;;;2.33;1.02;;;;;;;17.02;100.00;98806.97;5053380;28;20048;-68
2021/08/06 06:30:24;;;;;;;1.63;1.08;;;;;;;17.14;100.00;98818.22;5055480;28;20146;-71
2021/08/06 06:32:52;;;;;;;2.55;1.00;;;;;;;17.00;100.00;98822.44;5068281;28;20044;-70
2021/08/06 06:35:22;;;;;;;4.97;1.02;;;;;;;16.84;100.00;98810.66;5055325;28;20045;-71
2021/08/06 06:37:49;;;;;;;4.28;1.23;;;;;;;16.97;100.00;98827.16;5056336;28;20182;-75
2021/08/06 06:40:19;;;;;;;4.22;1.00;;;;;;;17.08;100.00;98834.09;5054856;28;20464;-72
2021/08/06 06:42:46;;;;;;;0.98;0.85;;;;;;;16.94;100.00;98864.38;5059355;28;20041;-72
2021/08/06 06:45:13;;;;;;;1.83;1.08;;;;;;;16.60;99.16;98858.09;5059654;28;20052;-71
2021/08/06 06:47:42;;;;;;;3.30;1.50;;;;;;;16.20;100.00;98862.34;5056757;28;20122;-72
2021/08/06 06:50:13;;;;;;;1.75;1.23;;;;;;;16.08;100.00;98859.09;5056228;28;20072;-72
2021/08/06 06:52:40;;;;;;;2.42;1.00;;;;;;;16.04;100.00;98858.59;5070978;28;20097;-74
2021/08/06 06:55:08;;;;;;;2.13;1.50;;;;;;;15.91;100.00;98868.91;5072718;28;20137;-72
2021/08/06 06:57:45;;;;;;;2.08;1.10;;;;;;;15.73;100.00;98859.91;5071699;28;20125;-73
2021/08/06 07:00:13;;;;;;;2.65;1.35;;;;;;;15.65;100.00;98883.22;5045262;28;20350;-69
2021/08/06 07:02:40;;;;;;;2.45;1.30;;;;;;;15.58;100.00;98874.94;5022045;28;20051;-73
2021/08/06 07:05:08;;;;;;;3.95;1.40;;;;;;;15.55;100.00;98880.63;5053383;28;20041;-72
2021/08/06 07:07:35;;;;;;;4.55;1.85;;;;;;;15.53;100.00;98883.47;5055385;28;20454;-69
2021/08/06 07:10:02;;;;;;;4.07;1.80;;;;;;;15.48;100.00;98893.88;5056166;28;20056;-71
2021/08/06 07:12:29;;;;;;;3.88;1.63;;;;;;;15.48;100.00;98889.31;5037786;28;20049;-71
2021/08/06 07:14:56;;;;;;;3.10;1.73;;;;;;;15.47;100.00;98894.84;5062197;28;20067;-70
2021/08/06 07:17:22;;;;;;;3.38;1.58;;;;;;;15.45;100.00;98886.09;5058262;28;20072;-68
2021/08/06 07:19:49;;;;;;;4.57;1.95;;;;;;;15.45;100.00;98896.84;5061609;28;20114;-71
2021/08/06 07:22:16;;;;;;;4.00;2.20;;;;;;;15.44;100.00;98887.13;5060053;28;20094;-70
2021/08/06 07:24:42;;;;;;;5.85;1.98;;;;;;;15.40;100.00;98897.34;5056134;28;20084;-70
2021/08/06 07:27:09;;;;;;;5.70;1.95;;;;;;;15.37;100.00;98903.03;5055071;28;20506;-71
2021/08/06 07:29:36;;;;;;;4.90;1.90;;;;;;;15.42;100.00;98902.56;5055267;28;20062;-69
2021/08/06 07:32:03;;;;;;;3.83;1.80;;;;;;;15.49;100.00;98906.31;5055604;28;20075;-71
2021/08/06 07:34:30;;;;;;;3.33;1.95;;;;;;;15.40;100.00;98904.53;5063817;28;20354;-71
2021/08/06 07:36:56;;;;;;;3.45;1.65;;;;;;;15.39;100.00;98902.84;5060525;28;20056;-74
2021/08/06 07:39:23;;;;;;;5.35;1.80;;;;;;;15.44;100.00;98908.63;5064129;28;20045;-73
2021/08/06 07:41:50;;;;;;;4.90;2.03;;;;;;;15.41;100.00;98895.50;5069878;28;20045;-73
2021/08/06 07:44:17;;;;;;;5.28;2.63;;;;;;;15.38;100.00;98879.66;5043262;28;20048;-72
2021/08/06 07:46:43;;;;;;;6.95;2.33;;;;;;;15.60;100.00;98903.34;5060814;28;20102;-70
2021/08/06 07:49:10;;;;;;;3.63;1.88;;;;;;;15.69;100.00;98896.19;5060258;28;20122;-75
2021/08/06 07:51:38;;;;;;;5.68;1.88;;;;;;;15.82;100.00;98909.22;5037168;28;20048;-74
2021/08/06 07:54:05;;;;;;;2.63;1.55;;;;;;;15.89;100.00;98904.91;5055926;28;20041;-73
2021/08/06 07:56:33;;;;;;;4.38;1.80;;;;;;;15.92;100.00;98905.59;5052759;28;20053;-72
2021/08/06 07:59:00;;;;;;;3.80;1.63;;;;;;;15.98;100.00;98902.28;5055330;28;20053;-74
2021/08/06 08:01:27;;;;;;;4.72;1.58;;;;;;;16.12;100.00;98907.06;5054794;28;20430;-73
2021/08/06 08:03:54;;;;;;;3.35;1.90;;;;;;;16.22;100.00;98900.69;5054701;28;20124;-75
2021/08/06 08:06:20;;;;;;;2.35;1.95;;;;;;;16.29;100.00;98905.28;5054279;28;20095;-75
2021/08/06 08:08:47;;;;;;;3.47;1.98;;;;;;;16.32;100.00;98911.34;5054931;28;20382;-68
2021/08/06 08:11:14;;;;;;;4.28;1.98;;;;;;;16.35;100.00;98914.56;5057263;28;20049;-73
2021/08/06 08:13:40;;;;;;;2.95;1.75;;;;;;;16.31;100.00;98915.91;5053850;28;20448;-72
2021/08/06 08:16:07;;;;;;;4.15;1.90;;;;;;;16.31;100.00;98913.22;5051240;28;20059;-72
2021/08/06 08:18:34;;;;;;;4.90;1.98;;;;;;;16.40;100.00;98920.31;5054235;28;20045;-71
2021/08/06 08:21:01;;;;;;;4.47;2.75;;;;;;;16.59;100.00;98920.19;5053127;28;20442;-74
2021/08/06 08:23:28;;;;;;;4.60;2.17;;;;;;;16.50;100.00;98882.47;5036661;28;20045;-74
2021/08/06 08:25:55;;;;;;;5.38;1.70;;;;;;;16.72;100.00;98900.88;5053770;28;20405;-73
2021/08/06 08:28:23;;;;;;;3.95;2.13;;;;;;;16.99;100.00;98915.09;5054712;28;20094;-74
2021/08/06 08:30:50;;;;;;;4.00;2.70;;;;;;;17.15;100.00;98912.44;5053215;28;20108;-78
2021/08/06 08:33:19;;;;;;;3.90;2.22;;;;;;;17.32;100.00;98915.16;5035810;28;20067;-78
2021/08/06 08:35:46;;;;;;;4.07;1.92;;;;;;;17.25;100.00;98914.97;5054031;28;20044;-76
2021/08/06 08:38:14;;;;;;;6.68;2.17;;;;;;;17.20;100.00;98912.78;5048588;28;20052;-70
2021/08/06 08:40:41;;;;;;;6.20;2.30;;;;;;;17.21;100.00;98913.63;5056276;28;20098;-69
2021/08/06 08:43:08;;;;;;;3.53;1.90;;;;;;;17.25;100.00;98920.34;5054305;28;20438;-71
2021/08/06 08:45:40;;;;;;;4.57;2.30;;;;;;;17.31;100.00;98905.34;5061254;28;20075;-72
2021/08/06 08:48:12;;;;;;;6.45;2.20;;;;;;;17.48;100.00;98911.59;5053062;28;20041;-73
2021/08/06 08:50:41;;;;;;;4.20;2.35;;;;;;;17.47;100.00;98902.66;5050936;28;20130;-74
2021/08/06 08:53:09;;;;;;;5.63;2.15;;;;;;;17.46;100.00;98900.13;5053981;28;20091;-75
2021/08/06 08:55:39;;;;;;;10.15;2.25;;;;;;;17.58;100.00;98914.09;5062263;28;20056;-73
2021/08/06 08:58:06;;;;;;;6.40;1.98;;;;;;;17.51;100.00;98906.72;5059941;28;20048;-77
2021/08/06 09:00:34;;;;;;;5.40;2.10;;;;;;;17.49;100.00;98895.22;5020984;28;20114;-73
2021/08/06 09:03:01;;;;;;;9.85;2.38;;;;;;;17.66;100.00;98900.63;5053569;28;20080;-70
2021/08/06 09:05:28;;;;;;;5.22;1.98;;;;;;;17.78;99.66;98898.41;5055497;28;20108;-73
2021/08/06 09:07:56;;;;;;;5.55;1.90;;;;;;;17.97;99.55;98891.78;5040369;28;20110;-72
2021/08/06 09:10:27;;;;;;;9.82;2.20;;;;;;;18.14;97.83;98873.69;5039356;28;20049;-72
2021/08/06 09:12:57;;;;;;;5.15;1.85;;;;;;;18.09;99.39;98891.44;5039636;28;20053;-72
2021/08/06 09:15:45;;;;;;;8.70;2.50;;;;;;;17.64;100.00;98908.03;5057740;28;20140;-70
2021/08/06 09:18:23;;;;;;;6.72;1.85;;;;;;;17.04;100.00;98928.91;5058080;28;20048;-71
2021/08/06 09:21:14;;;;;;;3.53;1.58;;;;;;;16.76;100.00;98929.16;5032998;28;20107;-69
2021/08/06 09:24:00;;;;;;;3.20;1.20;;;;;;;16.41;100.00;98931.94;5038014;28;20125;-71
2021/08/06 09:26:27;;;;;;;2.30;1.10;;;;;;;16.31;100.00;98931.19;5038057;28;20393;-72
2021/08/06 09:29:13;;;;;;;2.40;1.20;;;;;;;16.33;100.00;98926.50;5037493;28;20049;-70
2021/08/06 09:31:43;;;;;;;3.58;1.20;;;;;;;16.02;100.00;98911.72;5050738;28;20053;-74
2021/08/06 09:34:31;;;;;;;;;;;;;;;16.07;100.00;98917.44;5044521;28;20049;-73
2021/08/06 09:37:01;;;;;;;2.70;1.30;;;;;;;16.09;100.00;98920.00;5037221;28;20278;-71
2021/08/06 09:39:52;;;;;;;9.63;1.83;;;;;;;16.14;100.00;98918.50;5037435;28;20107;-73
2021/08/06 09:42:25;;;;;;;5.85;1.58;;;;;;;16.28;100.00;98924.28;5047964;28;20114;-73
2021/08/06 09:45:16;;;;;;;3.95;1.40;;;;;;;16.42;100.00;98931.78;5037883;28;20103;-72
2021/08/06 09:47:45;;;;;;;3.05;1.60;;;;;;;16.60;100.00;98928.13;5037646;28;20053;-73
2021/08/06 09:50:15;;;;;;;5.32;1.40;;;;;;;16.54;100.00;98924.25;5037465;28;20083;-70
2021/08/06 09:52:45;;;;;;;2.92;1.58;;;;;;;16.58;100.00;98929.28;5050046;28;20053;-74
2021/08/06 09:55:33;;;;;;;3.63;1.60;;;;;;;16.75;100.00;98931.03;5051024;28;20045;-71
2021/08/06 09:58:05;;;;;;;5.40;1.67;;;;;;;17.01;100.00;98940.88;5034755;28;20045;-72
2021/08/06 10:00:33;;;;;;;6.30;1.80;;;;;;;17.16;100.00;98943.75;5036925;28;20489;-71
2021/08/06 10:03:00;;;;;;;3.50;1.55;;;;;;;17.30;100.00;98934.19;5036643;28;20429;-73
2021/08/06 10:05:28;;;;;;;4.28;1.65;;;;;;;17.49;100.00;98943.78;5032248;28;20124;-73
2021/08/06 10:07:57;;;;;;;2.95;1.63;;;;;;;17.60;100.00;98944.47;5035908;28;20107;-69
2021/08/06 10:10:30;;;;;;;2.75;1.50;;;;;;;17.51;100.00;98941.78;5036440;28;20335;-69
2021/08/06 10:12:59;;;;;;;3.58;1.45;;;;;;;17.61;100.00;98928.09;5037601;28;20372;-68
2021/08/06 10:15:26;;;;;;;2.88;1.60;;;;;;;17.76;100.00;98938.22;5037504;28;20060;-74
2021/08/06 10:17:55;;;;;;;3.78;1.75;;;;;;;17.88;100.00;98947.63;5036664;28;20080;-70
2021/08/06 10:20:25;;;;;;;3.95;2.00;;;;;;;17.99;100.00;98943.75;5041932;28;20107;-69
2021/08/06 10:22:52;;;;;;;1.80;1.40;;;;;;;18.03;99.94;98939.69;5057383;28;20049;-72
2021/08/06 10:25:21;;;;;;;2.95;1.63;;;;;;;18.29;99.25;98949.44;5057374;28;20083;-70
2021/08/06 10:27:49;;;;;;;5.95;1.75;;;;;;;18.50;99.69;98945.31;5052413;28;20443;-68
2021/08/06 10:30:19;;;;;;;2.38;1.27;;;;;;;18.32;92.36;98943.66;5057491;28;20132;-70
2021/08/06 10:33:05;;;;;;;4.53;1.50;;;;;;;18.22;91.11;98945.75;5056767;28;20064;-75
2021/08/06 10:35:44;;;;;;;2.35;1.52;;;;;;;18.13;93.23;98952.16;5057140;28;20057;-70
2021/08/06 10:38:11;;;;;;;3.10;1.52;;;;;;;17.92;91.92;98957.09;5037508;28;20049;-73
2021/08/06 10:40:38;;;;;;;5.22;1.40;;;;;;;17.75;94.32;98958.97;5039106;28;20049;-73
2021/08/06 10:43:11;;;;;;;3.15;1.73;;;;;;;17.68;96.79;98968.75;5061429;28;20045;-73
2021/08/06 10:45:47;;;;;;;3.67;1.40;;;;;;;17.56;96.95;98973.66;5038744;28;20064;-80
2021/08/06 10:48:39;;;;;;;7.75;1.70;;;;;;;17.39;97.83;98964.72;5055902;28;20053;-76
2021/08/06 10:51:11;;;;;;;2.85;1.40;;;;;;;17.35;99.31;98971.44;5055535;28;20081;-69
2021/08/06 10:53:40;;;;;;;4.13;1.58;;;;;;;17.50;100.00;98969.75;5054150;28;20044;-71
2021/08/06 10:56:15;;;;;;;3.22;1.55;;;;;;;17.73;98.62;98966.38;5056339;28;20048;-71
2021/08/06 10:58:48;;;;;;;2.47;1.23;;;;;;;17.85;100.00;98955.22;5066943;28;20120;-73
2021/08/06 11:01:27;;;;;;;5.50;1.55;;;;;;;17.98;100.00;98952.84;5061323;28;20052;-72
2021/08/06 11:03:56;;;;;;;4.95;1.52;;;;;;;18.26;100.00;98954.34;5055454;28;20061;-72
2021/08/06 11:06:46;;;;;;;4.47;1.50;;;;;;;18.42;96.08;98948.03;5037544;28;20053;-73
2021/08/06 11:09:22;;;;;;;2.95;1.38;;;;;;;18.28;95.03;98955.00;5056195;28;20044;-72
2021/08/06 11:11:52;;;;;;;4.07;1.45;;;;;;;18.05;94.91;98953.03;5041359;28;20056;-74
2021/08/06 11:14:39;;;;;;;3.93;1.23;;;;;;;17.88;95.56;98952.19;5060159;28;20041;-71
2021/08/06 11:17:22;;;;;;;3.75;1.58;;;;;;;17.71;96.43;98941.41;5052569;28;20282;-76
2021/08/06 11:19:57;;;;;;;4.05;1.83;;;;;;;17.90;98.83;98934.81;5052674;28;20045;-72
2021/08/06 11:22:28;;;;;;;4.40;1.40;;;;;;;18.02;95.29;98951.50;5063254;28;20095;-74
2021/08/06 11:25:00;;;;;;;2.20;1.20;;;;;;;17.97;94.95;98942.25;5049831;28;20045;-73
2021/08/06 11:27:39;;;;;;;2.08;1.10;;;;;;;17.99;93.66;98951.84;5040788;28;20056;-73
2021/08/06 11:30:09;;;;;;;4.90;1.20;;;;;;;17.96;89.51;98951.31;5051968;28;20056;-73
2021/08/06 11:32:52;;;;;;;2.65;1.30;;;;;;;17.81;92.16;98935.84;5038120;28;20107;-72
2021/08/06 11:35:21;;;;;;;4.32;1.33;;;;;;;17.87;91.32;98937.03;5055862;28;20049;-70
2021/08/06 11:37:53;;;;;;;3.15;1.40;;;;;;;17.88;90.72;98941.41;5055423;28;20082;-72